Time;durP1;ratioP1;P1;durP2;ratioP2;P2;SDS_P1;SDS_P2;PMS_P1;PMS_P2;Temp;Humidity;BMP_temperature;BMP_pressure;BME280_temperature;BME280_humidity;BME280_pressure;Samples;Min_cycle;Max_cycle;Signal;HPM_P1;HPM_P2
2022/11/12 00:08:23;;;;;;;12.97;9.20;;;8.50;99.90;;;;;;20917953;28;20713;-70
2022/11/12 00:18:26;;;;;;;11.57;8.93;;;8.60;99.90;;;;;;20917272;28;20257;-70
2022/11/12 00:28:28;;;;;;;12.13;8.70;;;8.60;99.90;;;;;;20913305;28;20251;-71
2022/11/12 00:38:37;;;;;;;11.50;8.60;;;8.60;99.90;;;;;;20913662;28;20210;-70
2022/11/12 00:48:38;;;;;;;12.33;8.73;;;8.60;99.90;;;;;;20915001;28;20285;-70
2022/11/12 00:58:40;;;;;;;16.27;9.77;;;8.60;99.90;;;;;;20914093;28;20208;-70
2022/11/12 01:08:43;;;;;;;11.10;8.73;;;8.60;99.90;;;;;;20913296;28;20231;-70
2022/11/12 01:18:47;;;;;;;19.90;10.13;;;8.60;99.90;;;;;;20913348;28;20242;-70
2022/11/12 01:28:49;;;;;;;19.73;8.70;;;8.60;99.90;;;;;;20912468;28;20247;-70
2022/11/12 01:38:52;;;;;;;16.10;9.83;;;8.60;99.90;;;;;;20912529;28;20207;-70
2022/11/12 01:49:06;;;;;;;27.27;10.33;;;8.60;99.90;;;;;;20912469;28;20239;-70
2022/11/12 01:59:18;;;;;;;12.20;8.47;;;8.50;99.90;;;;;;20928445;28;20556;-70
2022/11/12 02:09:20;;;;;;;26.37;8.93;;;8.50;99.90;;;;;;20926999;28;20265;-70
2022/11/12 02:19:22;;;;;;;10.90;8.20;;;8.50;99.90;;;;;;20926696;28;20799;-70
2022/11/12 02:38:37;;;;;;;9.43;7.00;;;8.50;99.90;;;;;;20983345;28;21095;-70
2022/11/12 02:48:38;;;;;;;11.43;7.53;;;8.40;99.90;;;;;;20984024;28;20210;-70
2022/11/12 02:58:40;;;;;;;9.77;7.20;;;8.40;99.90;;;;;;20983123;28;20207;-70
2022/11/12 03:08:42;;;;;;;12.80;7.70;;;8.30;99.90;;;;;;20981925;28;20265;-70
2022/11/12 03:28:39;;;;;;;16.77;7.70;;;8.30;99.90;;;;;;20984779;28;20569;-70
2022/11/12 03:38:41;;;;;;;16.93;7.80;;;8.30;99.90;;;;;;20983897;28;20213;-71
2022/11/12 03:48:42;;;;;;;26.33;7.40;;;8.30;99.90;;;;;;20983328;28;20264;-70
2022/11/12 03:58:44;;;;;;;14.90;6.80;;;8.20;99.90;;;;;;20982010;28;20214;-71
2022/11/12 04:08:46;;;;;;;8.50;7.00;;;8.20;99.90;;;;;;20981443;28;20561;-70
2022/11/12 04:39:37;;;;;;;12.47;7.20;;;8.20;99.90;;;;;;20841969;28;20240;-71
2022/11/12 04:49:39;;;;;;;10.50;7.40;;;8.20;99.90;;;;;;20840675;28;20208;-71
2022/11/12 04:59:41;;;;;;;7.93;6.60;;;8.20;99.90;;;;;;20840325;28;20237;-71
2022/11/12 05:18:48;;;;;;;7.60;6.80;;;8.10;99.90;;;;;;21147181;27;20366;-70
2022/11/12 05:28:49;;;;;;;9.10;6.87;;;8.20;99.90;;;;;;21133557;28;20210;-70
2022/11/12 05:38:51;;;;;;;8.90;7.07;;;8.20;99.90;;;;;;21151176;28;20210;-70
2022/11/12 05:48:53;;;;;;;10.33;7.10;;;;;;;;;;21150893;28;20202;-69
2022/11/12 05:58:55;;;;;;;8.40;6.57;;;8.20;99.90;;;;;;21149205;28;20327;-69
2022/11/12 06:08:57;;;;;;;7.37;5.77;;;8.20;99.90;;;;;;21147824;27;20228;-69
2022/11/12 06:19:02;;;;;;;7.13;6.00;;;8.10;99.90;;;;;;21148128;28;20275;-70
2022/11/12 06:33:51;;;;;;;7.57;6.23;;;8.00;99.90;;;;;;20982367;28;20569;-71
2022/11/12 06:43:52;;;;;;;7.67;6.10;;;8.00;99.90;;;;;;20969610;28;20203;-68
2022/11/12 06:53:55;;;;;;;7.47;6.20;;;8.10;99.90;;;;;;20932052;28;20203;-70
2022/11/12 07:03:56;;;;;;;7.67;6.27;;;8.10;99.90;;;;;;20927983;28;20203;-64
2022/11/12 07:13:58;;;;;;;9.87;7.27;;;8.10;99.90;;;;;;20981169;28;20215;-65
2022/11/12 07:24:00;;;;;;;11.07;6.50;;;8.10;99.90;;;;;;20976367;28;20214;-67
2022/11/12 07:34:03;;;;;;;7.73;6.23;;;8.10;99.90;;;;;;20975599;28;20229;-69
2022/11/12 07:44:04;;;;;;;10.27;6.43;;;8.10;99.90;;;;;;20930366;28;20207;-67
2022/11/12 07:54:06;;;;;;;9.93;6.40;;;8.10;99.90;;;;;;20922929;28;20218;-68
2022/11/12 08:04:10;;;;;;;9.23;7.03;;;8.10;99.90;;;;;;20922436;28;20249;-69
2022/11/12 08:14:12;;;;;;;8.47;6.97;;;8.20;99.90;;;;;;20922271;28;20216;-67
2022/11/12 08:24:14;;;;;;;10.80;7.87;;;8.20;99.90;;;;;;20920863;28;20243;-65
2022/11/12 08:34:15;;;;;;;18.57;9.13;;;8.30;99.90;;;;;;20919797;28;20231;-66
2022/11/12 08:44:23;;;;;;;18.73;8.87;;;8.40;99.90;;;;;;20889104;28;20232;-66
2022/11/12 08:54:24;;;;;;;11.23;7.30;;;8.50;99.90;;;;;;20917632;28;20207;-66
2022/11/12 09:04:26;;;;;;;10.90;7.43;;;8.70;99.90;;;;;;20867065;28;20242;-65
2022/11/12 09:14:28;;;;;;;10.67;7.50;;;8.80;99.90;;;;;;20861818;28;20210;-64
2022/11/12 09:24:29;;;;;;;8.68;7.88;;;8.90;99.90;;;;;;20867910;28;20803;-68
2022/11/12 09:34:31;;;;;;;9.27;7.57;;;9.10;99.90;;;;;;20911650;28;20268;-67
2022/11/12 09:44:36;;;;;;;9.53;7.47;;;9.10;99.90;;;;;;20914499;28;20235;-67
2022/11/12 09:54:39;;;;;;;11.57;8.20;;;9.20;99.90;;;;;;20913169;28;20258;-68
2022/11/12 10:04:52;;;;;;;9.53;7.40;;;9.40;99.90;;;;;;20843833;28;20224;-69
2022/11/12 10:25:42;;;;;;;10.60;8.03;;;9.50;99.90;;;;;;20828790;28;20283;-69
2022/11/12 10:35:47;;;;;;;11.37;8.53;;;9.60;99.90;;;;;;20829535;28;20206;-68
2022/11/12 10:55:58;;;;;;;11.63;8.23;;;9.70;99.90;;;;;;21131158;27;20287;-70
2022/11/12 11:06:12;;;;;;;11.77;9.00;;;9.80;99.90;;;;;;21067453;28;20232;-71
2022/11/12 11:16:17;;;;;;;12.77;9.50;;;9.80;99.90;;;;;;21066486;28;20208;-70
2022/11/12 11:26:51;;;;;;;12.00;9.50;;;10.10;99.90;;;;;;21026759;28;20282;-71
2022/11/12 11:37:18;;;;;;;11.70;9.80;;;10.20;99.90;;;;;;20980942;28;20221;-67
2022/11/12 11:47:34;;;;;;;13.17;10.10;;;10.40;99.90;;;;;;21028930;28;20293;-66
2022/11/12 11:58:08;;;;;;;11.70;9.50;;;10.50;99.80;;;;;;21141988;28;20292;-75
2022/11/12 12:08:31;;;;;;;15.40;11.00;;;10.60;99.70;;;;;;21090751;28;20278;-75
2022/11/12 12:19:06;;;;;;;13.00;10.10;;;10.70;99.90;;;;;;21089515;28;20220;-80
2022/11/12 12:29:16;;;;;;;16.20;11.20;;;10.70;99.90;;;;;;21041361;28;20245;-72
2022/11/12 12:39:57;;;;;;;13.60;10.80;;;10.80;99.70;;;;;;21075592;28;20233;-73
2022/11/12 12:50:02;;;;;;;13.20;10.37;;;10.70;99.70;;;;;;21073812;28;20241;-78
2022/11/12 13:00:24;;;;;;;15.20;12.43;;;10.80;99.90;;;;;;21086679;28;20205;-73
2022/11/12 13:10:38;;;;;;;16.47;12.27;;;10.90;99.80;;;;;;21084418;28;20273;-71
2022/11/12 13:20:41;;;;;;;15.00;12.23;;;10.90;99.90;;;;;;21010769;28;20215;-70
2022/11/12 13:30:42;;;;;;;16.40;12.83;;;10.90;99.90;;;;;;21000046;28;20237;-67
2022/11/12 13:41:05;;;;;;;16.40;12.23;;;10.90;99.90;;;;;;20998938;28;20270;-70
2022/11/12 13:51:27;;;;;;;17.33;13.27;;;11.00;99.90;;;;;;20997539;28;20278;-67
2022/11/12 14:01:30;;;;;;;15.80;12.50;;;11.00;99.90;;;;;;20997760;28;20236;-68
2022/11/12 14:11:35;;;;;;;15.90;12.50;;;11.00;99.90;;;;;;20996321;28;20266;-68
2022/11/12 14:21:37;;;;;;;17.50;12.93;;;10.80;99.90;;;;;;20996151;28;20217;-71
2022/11/12 14:31:38;;;;;;;20.83;15.73;;;10.80;99.90;;;;;;20996047;28;20240;-71
2022/11/12 14:41:42;;;;;;;23.03;16.07;;;10.80;99.90;;;;;;20995406;28;20623;-66
2022/11/12 14:51:49;;;;;;;23.27;15.50;;;10.70;99.90;;;;;;20994999;28;20608;-71
2022/11/12 15:02:14;;;;;;;21.63;15.97;;;10.40;99.90;;;;;;20995120;28;20203;-72
2022/11/12 15:12:36;;;;;;;25.57;16.77;;;10.30;99.90;;;;;;20995289;28;20228;-78
2022/11/12 15:22:38;;;;;;;27.57;17.80;;;10.20;99.90;;;;;;21074242;28;20222;-72
2022/11/12 15:32:40;;;;;;;24.40;16.63;;;10.10;99.90;;;;;;21076345;28;20737;-74
2022/11/12 15:42:42;;;;;;;26.90;17.70;;;10.10;99.90;;;;;;21092435;28;20211;-73
2022/11/12 15:52:44;;;;;;;24.47;17.40;;;10.10;99.90;;;;;;21091260;28;20711;-71
2022/11/12 16:02:54;;;;;;;24.83;17.97;;;10.20;99.90;;;;;;21090803;28;20204;-80
2022/11/12 16:12:59;;;;;;;31.97;18.07;;;10.10;99.90;;;;;;21090708;28;20229;-80
2022/11/12 16:23:01;;;;;;;41.03;25.00;;;10.10;99.90;;;;;;21089171;28;20211;-71
2022/11/12 16:33:02;;;;;;;34.63;22.47;;;9.90;99.90;;;;;;21088568;28;20230;-76
2022/11/12 16:43:04;;;;;;;34.13;21.63;;;9.90;99.90;;;;;;21032152;28;20561;-72
2022/11/12 16:53:06;;;;;;;33.23;21.20;;;9.90;99.90;;;;;;21003146;28;20307;-72
2022/11/12 17:03:11;;;;;;;49.73;29.03;;;9.90;99.90;;;;;;21002350;28;20220;-69
2022/11/12 17:13:15;;;;;;;37.90;21.80;;;9.90;99.90;;;;;;20999856;28;20238;-72
2022/11/12 17:23:16;;;;;;;31.23;21.13;;;9.80;99.90;;;;;;21081154;28;20207;-73
2022/11/12 17:33:18;;;;;;;34.13;20.83;;;9.80;99.90;;;;;;21082188;28;20246;-72
2022/11/12 17:43:20;;;;;;;30.23;21.40;;;9.80;99.90;;;;;;21082963;28;20208;-73
2022/11/12 17:53:21;;;;;;;35.13;20.30;;;9.90;99.90;;;;;;21081559;28;20241;-76
2022/11/12 18:03:23;;;;;;;36.47;22.57;;;9.90;99.90;;;;;;21080759;28;20588;-72
2022/11/12 18:13:26;;;;;;;61.20;21.83;;;9.90;99.90;;;;;;21080692;28;20240;-73
2022/11/12 18:23:28;;;;;;;44.27;23.97;;;9.90;99.90;;;;;;21080080;28;20293;-80
2022/11/12 18:33:31;;;;;;;104.93;23.83;;;9.70;99.90;;;;;;21077772;28;20313;-81
2022/11/12 18:43:35;;;;;;;61.00;21.83;;;9.70;99.90;;;;;;21077351;28;20223;-83
2022/11/12 18:53:38;;;;;;;92.30;22.20;;;9.50;99.90;;;;;;21076701;28;20651;-76
2022/11/12 19:03:40;;;;;;;93.17;19.63;;;9.50;99.90;;;;;;21076185;28;20211;-80
2022/11/12 19:13:42;;;;;;;83.13;19.57;;;9.40;99.90;;;;;;21086243;28;20571;-79
2022/11/12 19:23:45;;;;;;;64.93;19.63;;;9.20;99.90;;;;;;21012549;28;20204;-72
2022/11/12 19:33:53;;;;;;;45.60;18.70;;;9.20;99.90;;;;;;21009626;28;20240;-78
2022/11/12 19:43:55;;;;;;;42.07;18.80;;;;;;;;;;20991030;28;20256;-73
2022/11/12 19:53:57;;;;;;;43.10;17.93;;;9.30;99.90;;;;;;20990028;28;20243;-73
2022/11/12 20:03:59;;;;;;;55.20;18.47;;;9.30;99.90;;;;;;21005156;28;20203;-73
2022/11/12 20:14:01;;;;;;;49.30;17.03;;;9.20;99.90;;;;;;21004644;28;20297;-75
2022/11/12 20:24:03;;;;;;;25.87;14.90;;;9.20;99.90;;;;;;21003387;28;20235;-75
2022/11/12 20:34:05;;;;;;;22.30;15.30;;;9.20;99.90;;;;;;21003902;28;20242;-76
2022/11/12 20:44:07;;;;;;;46.47;16.30;;;9.20;99.90;;;;;;21004971;28;20214;-75
2022/11/12 20:54:09;;;;;;;36.50;16.87;;;9.10;99.90;;;;;;21001041;28;20722;-74
2022/11/12 21:04:11;;;;;;;74.37;17.03;;;9.20;99.90;;;;;;21000609;28;20256;-72
2022/11/12 21:14:14;;;;;;;31.13;15.23;;;9.20;99.90;;;;;;20999748;28;20235;-74
2022/11/12 21:24:15;;;;;;;30.80;14.20;;;9.20;99.90;;;;;;21074506;28;20665;-74
2022/11/12 21:34:17;;;;;;;36.40;14.07;;;9.10;99.90;;;;;;21079425;28;20234;-75
2022/11/12 21:44:19;;;;;;;22.30;13.50;;;9.20;99.90;;;;;;21080903;28;20210;-74
2022/11/12 21:54:21;;;;;;;53.03;12.77;;;9.10;99.90;;;;;;21079585;28;20275;-75
2022/11/12 22:04:23;;;;;;;48.20;13.73;;;9.00;99.90;;;;;;21080412;28;20646;-75
2022/11/12 22:14:24;;;;;;;24.77;13.93;;;8.90;99.90;;;;;;21078772;28;20304;-75
2022/11/12 22:24:26;;;;;;;23.33;14.67;;;9.00;99.90;;;;;;21077978;28;20213;-76
2022/11/12 22:34:27;;;;;;;33.23;14.77;;;9.00;99.90;;;;;;21077775;28;20234;-75
2022/11/12 22:44:29;;;;;;;38.27;15.67;;;9.00;99.90;;;;;;21080391;28;20206;-75
2022/11/12 22:54:31;;;;;;;20.20;14.30;;;9.00;99.90;;;;;;21078839;28;20246;-76
2022/11/12 23:04:33;;;;;;;20.20;14.43;;;9.00;99.90;;;;;;21078421;28;20206;-72
2022/11/12 23:14:34;;;;;;;20.50;12.60;;;9.00;99.90;;;;;;21078046;28;20259;-72
2022/11/12 23:24:36;;;;;;;15.93;11.77;;;8.90;99.90;;;;;;21074119;28;20211;-72
2022/11/12 23:34:38;;;;;;;17.20;11.57;;;8.90;99.90;;;;;;21076051;28;20694;-73
2022/11/12 23:44:39;;;;;;;23.30;12.23;;;8.80;99.90;;;;;;21077104;28;20216;-73
2022/11/12 23:54:41;;;;;;;19.57;12.27;;;8.80;99.90;;;;;;21077967;28;20287;-72
